Terminal Aerodrome Forecast
Issued by NWS

Home | Current Version | Previous Version | Text Only | Print | Product List | Glossary On
Versions: 1 2 3 4 5 6 7 8 9 10 11 12 13 14 15 16 17 18 19
532
FTUS43 KSGF 211120
TAFJLN
TAF
KJLN 211120Z 2112/2212 06008KT P6SM BKN150
      TEMPO 2112/2115 3SM TSRA BKN050CB
     FM211500 06012G17KT P6SM BKN050
     FM212200 07015G20KT P6SM BKN050
      TEMPO 2122/2202 4SM TSRA SCT025 OVC050CB
     FM220200 07012G17KT P6SM OVC040 PROB30 2202/2208 5SM SHRA
      SCT025 OVC035
     FM220800 06012KT P6SM OVC035=

USA.gov is the U.S. government's official web portal to all federal, state and local government web resources and services.